sensor_id;sensor_type;location;lat;lon;timestamp;pressure;altitude;pressure_sealevel;temperature
49785;BMP280;35679;38.732;-121.358;2022-11-15T00:00:18;101608.28;;;17.01
49785;BMP280;35679;38.732;-121.358;2022-11-15T00:03:27;101609.94;;;17.02
49785;BMP280;35679;38.732;-121.358;2022-11-15T00:06:37;101607.28;;;17.02
49785;BMP280;35679;38.732;-121.358;2022-11-15T00:09:46;101600.28;;;17.01
49785;BMP280;35679;38.732;-121.358;2022-11-15T00:12:54;101608.94;;;17.03
49785;BMP280;35679;38.732;-121.358;2022-11-15T00:16:03;101606.28;;;17.03
49785;BMP280;35679;38.732;-121.358;2022-11-15T00:19:11;101598.28;;;17.03
49785;BMP280;35679;38.732;-121.358;2022-11-15T00:22:20;101600.94;;;17.03
49785;BMP280;35679;38.732;-121.358;2022-11-15T00:25:30;101608.09;;;17.02
49785;BMP280;35679;38.732;-121.358;2022-11-15T00:28:39;101599.28;;;17.02
49785;BMP280;35679;38.732;-121.358;2022-11-15T00:31:49;101603.63;;;17.03
49785;BMP280;35679;38.732;-121.358;2022-11-15T00:34:58;101610.75;;;17.02
49785;BMP280;35679;38.732;-121.358;2022-11-15T00:38:07;101609.94;;;17.02
49785;BMP280;35679;38.732;-121.358;2022-11-15T00:41:15;101613.44;;;17.02
49785;BMP280;35679;38.732;-121.358;2022-11-15T00:44:23;101616.09;;;17.02
49785;BMP280;35679;38.732;-121.358;2022-11-15T00:47:32;101602.97;;;17.01
49785;BMP280;35679;38.732;-121.358;2022-11-15T00:50:40;101617.28;;;17.00
49785;BMP280;35679;38.732;-121.358;2022-11-15T00:53:49;101618.97;;;17.01
49785;BMP280;35679;38.732;-121.358;2022-11-15T00:56:58;101610.31;;;16.99
49785;BMP280;35679;38.732;-121.358;2022-11-15T01:00:07;101623.63;;;16.99
49785;BMP280;35679;38.732;-121.358;2022-11-15T01:03:17;101615.84;;;16.97
49785;BMP280;35679;38.732;-121.358;2022-11-15T01:06:26;101616.69;;;16.98
49785;BMP280;35679;38.732;-121.358;2022-11-15T01:09:34;101609.88;;;16.95
49785;BMP280;35679;38.732;-121.358;2022-11-15T01:12:43;101622.38;;;16.95
49785;BMP280;35679;38.732;-121.358;2022-11-15T01:15:52;101622.38;;;16.95
49785;BMP280;35679;38.732;-121.358;2022-11-15T01:19:01;101618.03;;;16.94
49785;BMP280;35679;38.732;-121.358;2022-11-15T01:22:10;101620.09;;;16.92
49785;BMP280;35679;38.732;-121.358;2022-11-15T01:25:17;101620.91;;;16.92
49785;BMP280;35679;38.732;-121.358;2022-11-15T01:28:28;101624.56;;;16.91
49785;BMP280;35679;38.732;-121.358;2022-11-15T01:31:37;101629.28;;;16.89
49785;BMP280;35679;38.732;-121.358;2022-11-15T01:34:46;101639.94;;;16.89
49785;BMP280;35679;38.732;-121.358;2022-11-15T01:37:54;101639.09;;;16.89
49785;BMP280;35679;38.732;-121.358;2022-11-15T01:41:03;101648.13;;;16.88
49785;BMP280;35679;38.732;-121.358;2022-11-15T01:47:42;101644.16;;;16.84
49785;BMP280;35679;38.732;-121.358;2022-11-15T01:50:53;101652.16;;;16.84
49785;BMP280;35679;38.732;-121.358;2022-11-15T01:54:06;101644.53;;;16.81
49785;BMP280;35679;38.732;-121.358;2022-11-15T01:57:17;101648.22;;;16.80
49785;BMP280;35679;38.732;-121.358;2022-11-15T02:00:24;101643.88;;;16.79
49785;BMP280;35679;38.732;-121.358;2022-11-15T02:03:54;101647.56;;;16.78
49785;BMP280;35679;38.732;-121.358;2022-11-15T02:07:05;101643.44;;;16.75
49785;BMP280;35679;38.732;-121.358;2022-11-15T02:10:22;101655.94;;;16.75
49785;BMP280;35679;38.732;-121.358;2022-11-15T02:13:31;101649.94;;;16.73
49785;BMP280;35679;38.732;-121.358;2022-11-15T02:17:22;101652.00;;;16.71
49785;BMP280;35679;38.732;-121.358;2022-11-15T02:21:00;101648.66;;;16.69
49785;BMP280;35679;38.732;-121.358;2022-11-15T02:38:07;101671.56;;;16.63
49785;BMP280;35679;38.732;-121.358;2022-11-15T02:41:23;101665.59;;;16.61
49785;BMP280;35679;38.732;-121.358;2022-11-15T02:44:45;101665.78;;;16.60
49785;BMP280;35679;38.732;-121.358;2022-11-15T02:47:56;101669.63;;;16.57
49785;BMP280;35679;38.732;-121.358;2022-11-15T02:51:07;101669.81;;;16.56
49785;BMP280;35679;38.732;-121.358;2022-11-15T02:54:25;101677.97;;;16.54
49785;BMP280;35679;38.732;-121.358;2022-11-15T02:57:55;101678.16;;;16.53
49785;BMP280;35679;38.732;-121.358;2022-11-15T03:05:06;101682.19;;;16.49
49785;BMP280;35679;38.732;-121.358;2022-11-15T03:08:26;101686.72;;;16.48
49785;BMP280;35679;38.732;-121.358;2022-11-15T03:11:41;101680.72;;;16.46
49785;BMP280;35679;38.732;-121.358;2022-11-15T03:15:03;101681.09;;;16.43
49785;BMP280;35679;38.732;-121.358;2022-11-15T03:18:19;101685.59;;;16.43
49785;BMP280;35679;38.732;-121.358;2022-11-15T03:21:30;101691.28;;;16.40
49785;BMP280;35679;38.732;-121.358;2022-11-15T03:24:40;101699.44;;;16.39
49785;BMP280;35679;38.732;-121.358;2022-11-15T03:27:53;101695.16;;;16.38
49785;BMP280;35679;38.732;-121.358;2022-11-15T03:31:04;101694.69;;;16.34
49785;BMP280;35679;38.732;-121.358;2022-11-15T03:41:15;101692.53;;;16.30
49785;BMP280;35679;38.732;-121.358;2022-11-15T03:47:58;101700.91;;;16.27
49785;BMP280;35679;38.732;-121.358;2022-11-15T03:51:09;101699.41;;;16.24
49785;BMP280;35679;38.732;-121.358;2022-11-15T03:54:18;101701.06;;;16.25
49785;BMP280;35679;38.732;-121.358;2022-11-15T03:57:29;101705.72;;;16.23
49785;BMP280;35679;38.732;-121.358;2022-11-15T04:00:39;101704.06;;;16.22
49785;BMP280;35679;38.732;-121.358;2022-11-15T04:03:48;101711.41;;;16.20
49785;BMP280;35679;38.732;-121.358;2022-11-15T04:06:57;101709.75;;;16.19
49785;BMP280;35679;38.732;-121.358;2022-11-15T04:10:06;101724.06;;;16.18
49785;BMP280;35679;38.732;-121.358;2022-11-15T04:13:15;101715.28;;;16.18
49785;BMP280;35679;38.732;-121.358;2022-11-15T04:16:23;101715.41;;;16.16
49785;BMP280;35679;38.732;-121.358;2022-11-15T04:19:33;101713.75;;;16.15
49785;BMP280;35679;38.732;-121.358;2022-11-15T04:23:02;101717.78;;;16.11
49785;BMP280;35679;38.732;-121.358;2022-11-15T04:26:30;101716.13;;;16.10
49785;BMP280;35679;38.732;-121.358;2022-11-15T04:29:39;101718.16;;;16.08
49785;BMP280;35679;38.732;-121.358;2022-11-15T04:32:48;101719.97;;;16.08
49785;BMP280;35679;38.732;-121.358;2022-11-15T04:35:56;101723.81;;;16.05
49785;BMP280;35679;38.732;-121.358;2022-11-15T04:39:37;101726.84;;;16.02
49785;BMP280;35679;38.732;-121.358;2022-11-15T04:42:48;101725.84;;;16.03
49785;BMP280;35679;38.732;-121.358;2022-11-15T04:45:56;101727.22;;;15.99
49785;BMP280;35679;38.732;-121.358;2022-11-15T04:49:05;101735.22;;;15.99
49785;BMP280;35679;38.732;-121.358;2022-11-15T04:52:13;101736.22;;;15.98
49785;BMP280;35679;38.732;-121.358;2022-11-15T04:55:22;101734.56;;;15.97
49785;BMP280;35679;38.732;-121.358;2022-11-15T04:58:32;101737.59;;;15.94
49785;BMP280;35679;38.732;-121.358;2022-11-15T05:01:40;101734.06;;;15.94
49785;BMP280;35679;38.732;-121.358;2022-11-15T05:04:50;101733.41;;;15.92
49785;BMP280;35679;38.732;-121.358;2022-11-15T05:07:59;101741.56;;;15.90
49785;BMP280;35679;38.732;-121.358;2022-11-15T05:11:08;101742.56;;;15.89
49785;BMP280;35679;38.732;-121.358;2022-11-15T05:14:18;101743.59;;;15.88
49785;BMP280;35679;38.732;-121.358;2022-11-15T05:17:27;101741.94;;;15.87
49785;BMP280;35679;38.732;-121.358;2022-11-15T05:20:35;101740.66;;;15.83
49785;BMP280;35679;38.732;-121.358;2022-11-15T05:23:44;101740.66;;;15.83
49785;BMP280;35679;38.732;-121.358;2022-11-15T05:26:53;101739.16;;;15.81
49785;BMP280;35679;38.732;-121.358;2022-11-15T05:30:01;101744.63;;;15.79
49785;BMP280;35679;38.732;-121.358;2022-11-15T05:33:10;101743.00;;;15.78
49785;BMP280;35679;38.732;-121.358;2022-11-15T05:39:35;101749.50;;;15.76
49785;BMP280;35679;38.732;-121.358;2022-11-15T05:42:46;101753.16;;;15.75
49785;BMP280;35679;38.732;-121.358;2022-11-15T05:45:57;101748.03;;;15.74
49785;BMP280;35679;38.732;-121.358;2022-11-15T05:49:08;101748.38;;;15.71
49785;BMP280;35679;38.732;-121.358;2022-11-15T05:52:23;101747.69;;;15.69
49785;BMP280;35679;38.732;-121.358;2022-11-15T05:55:34;101746.06;;;15.68
49785;BMP280;35679;38.732;-121.358;2022-11-15T05:58:43;101749.72;;;15.67
49785;BMP280;35679;38.732;-121.358;2022-11-15T06:01:51;101748.88;;;15.66
49785;BMP280;35679;38.732;-121.358;2022-11-15T06:05:00;101739.41;;;15.64
49785;BMP280;35679;38.732;-121.358;2022-11-15T06:08:10;101741.25;;;15.63
49785;BMP280;35679;38.732;-121.358;2022-11-15T06:11:18;101738.78;;;15.62
49785;BMP280;35679;38.732;-121.358;2022-11-15T06:14:27;101743.44;;;15.60
49785;BMP280;35679;38.732;-121.358;2022-11-15T06:17:36;101737.28;;;15.59
49785;BMP280;35679;38.732;-121.358;2022-11-15T06:20:44;101738.09;;;15.60
49785;BMP280;35679;38.732;-121.358;2022-11-15T06:23:53;101730.31;;;15.58
49785;BMP280;35679;38.732;-121.358;2022-11-15T06:27:02;101728.66;;;15.57
49785;BMP280;35679;38.732;-121.358;2022-11-15T06:30:11;101720.03;;;15.55
49785;BMP280;35679;38.732;-121.358;2022-11-15T06:33:20;101722.84;;;15.54
49785;BMP280;35679;38.732;-121.358;2022-11-15T06:36:29;101731.00;;;15.52
49785;BMP280;35679;38.732;-121.358;2022-11-15T06:39:38;101723.88;;;15.53
49785;BMP280;35679;38.732;-121.358;2022-11-15T06:42:47;101725.06;;;15.50
49785;BMP280;35679;38.732;-121.358;2022-11-15T06:45:58;101735.50;;;15.52
49785;BMP280;35679;38.732;-121.358;2022-11-15T06:49:08;101749.81;;;15.51
49785;BMP280;35679;38.732;-121.358;2022-11-15T06:52:17;101749.31;;;15.47
49785;BMP280;35679;38.732;-121.358;2022-11-15T06:55:27;101744.00;;;15.47
49785;BMP280;35679;38.732;-121.358;2022-11-15T06:58:36;101741.53;;;15.46
49785;BMP280;35679;38.732;-121.358;2022-11-15T07:01:45;101755.81;;;15.45
49785;BMP280;35679;38.732;-121.358;2022-11-15T07:04:55;101760.31;;;15.44
49785;BMP280;35679;38.732;-121.358;2022-11-15T07:08:04;101759.47;;;15.44
49785;BMP280;35679;38.732;-121.358;2022-11-15T07:11:12;101765.78;;;15.43
49785;BMP280;35679;38.732;-121.358;2022-11-15T07:14:21;101759.84;;;15.41
49785;BMP280;35679;38.732;-121.358;2022-11-15T07:17:30;101763.50;;;15.40
49785;BMP280;35679;38.732;-121.358;2022-11-15T07:20:39;101758.53;;;15.37
49785;BMP280;35679;38.732;-121.358;2022-11-15T07:23:48;101761.19;;;15.37
49785;BMP280;35679;38.732;-121.358;2022-11-15T07:26:57;101759.53;;;15.36
49785;BMP280;35679;38.732;-121.358;2022-11-15T07:30:07;101757.84;;;15.35
49785;BMP280;35679;38.732;-121.358;2022-11-15T07:33:16;101758.84;;;15.34
49785;BMP280;35679;38.732;-121.358;2022-11-15T07:36:25;101750.06;;;15.33
49785;BMP280;35679;38.732;-121.358;2022-11-15T07:39:35;101755.56;;;15.32
49785;BMP280;35679;38.732;-121.358;2022-11-15T07:42:44;101754.53;;;15.33
49785;BMP280;35679;38.732;-121.358;2022-11-15T07:46:07;101761.88;;;15.31
49785;BMP280;35679;38.732;-121.358;2022-11-15T07:49:17;101762.69;;;15.31
49785;BMP280;35679;38.732;-121.358;2022-11-15T07:52:26;101757.06;;;15.26
49785;BMP280;35679;38.732;-121.358;2022-11-15T07:55:35;101760.56;;;15.27
49785;BMP280;35679;38.732;-121.358;2022-11-15T07:58:45;101767.88;;;15.25
49785;BMP280;35679;38.732;-121.358;2022-11-15T08:01:54;101770.53;;;15.25
49785;BMP280;35679;38.732;-121.358;2022-11-15T08:05:04;101775.19;;;15.23
49785;BMP280;35679;38.732;-121.358;2022-11-15T08:08:21;101772.69;;;15.21
49785;BMP280;35679;38.732;-121.358;2022-11-15T08:11:30;101778.00;;;15.21
49785;BMP280;35679;38.732;-121.358;2022-11-15T08:14:39;101772.00;;;15.19
49785;BMP280;35679;38.732;-121.358;2022-11-15T08:18:12;101769.50;;;15.18
49785;BMP280;35679;38.732;-121.358;2022-11-15T08:21:24;101767.03;;;15.16
49785;BMP280;35679;38.732;-121.358;2022-11-15T08:24:32;101770.69;;;15.15
49785;BMP280;35679;38.732;-121.358;2022-11-15T08:27:42;101774.50;;;15.13
49785;BMP280;35679;38.732;-121.358;2022-11-15T08:30:52;101772.84;;;15.12
49785;BMP280;35679;38.732;-121.358;2022-11-15T08:34:01;101781.66;;;15.12
49785;BMP280;35679;38.732;-121.358;2022-11-15T08:37:10;101778.34;;;15.10
49785;BMP280;35679;38.732;-121.358;2022-11-15T08:40:19;101779.34;;;15.09
49785;BMP280;35679;38.732;-121.358;2022-11-15T08:43:28;101784.00;;;15.07
49785;BMP280;35679;38.732;-121.358;2022-11-15T08:46:38;101785.00;;;15.07
49785;BMP280;35679;38.732;-121.358;2022-11-15T08:49:46;101790.69;;;15.04
49785;BMP280;35679;38.732;-121.358;2022-11-15T08:52:54;101796.81;;;15.04
49785;BMP280;35679;38.732;-121.358;2022-11-15T08:56:15;101796.13;;;15.02
49785;BMP280;35679;38.732;-121.358;2022-11-15T08:59:23;101806.78;;;15.02
49785;BMP280;35679;38.732;-121.358;2022-11-15T09:02:31;101818.56;;;15.00
49785;BMP280;35679;38.732;-121.358;2022-11-15T09:05:39;101816.09;;;14.98
49785;BMP280;35679;38.732;-121.358;2022-11-15T09:08:47;101810.09;;;14.96
49785;BMP280;35679;38.732;-121.358;2022-11-15T09:11:55;101797.47;;;14.98
49785;BMP280;35679;38.732;-121.358;2022-11-15T09:15:08;101800.97;;;14.99
49785;BMP280;35679;38.732;-121.358;2022-11-15T09:18:16;101801.31;;;14.96
49785;BMP280;35679;38.732;-121.358;2022-11-15T09:21:28;101803.78;;;14.97
49785;BMP280;35679;38.732;-121.358;2022-11-15T09:24:37;101808.47;;;14.95
49785;BMP280;35679;38.732;-121.358;2022-11-15T09:27:45;101800.63;;;14.94
49785;BMP280;35679;38.732;-121.358;2022-11-15T09:31:02;101797.97;;;14.94
49785;BMP280;35679;38.732;-121.358;2022-11-15T09:34:10;101806.47;;;14.89
49785;BMP280;35679;38.732;-121.358;2022-11-15T09:37:19;101808.97;;;14.91
49785;BMP280;35679;38.732;-121.358;2022-11-15T09:40:27;101811.97;;;14.88
49785;BMP280;35679;38.732;-121.358;2022-11-15T09:47:23;101811.13;;;14.87
49785;BMP280;35679;38.732;-121.358;2022-11-15T09:50:47;101806.78;;;14.86
49785;BMP280;35679;38.732;-121.358;2022-11-15T09:54:12;101805.47;;;14.82
49785;BMP280;35679;38.732;-121.358;2022-11-15T09:57:15;101809.81;;;14.83
49785;BMP280;35679;38.732;-121.358;2022-11-15T10:03:36;101807.50;;;14.80
49785;BMP280;35679;38.732;-121.358;2022-11-15T10:06:27;101802.19;;;14.80
49785;BMP280;35679;38.732;-121.358;2022-11-15T10:10:09;101806.66;;;14.80
49785;BMP280;35679;38.732;-121.358;2022-11-15T10:12:38;101809.47;;;14.78
49785;BMP280;35679;38.732;-121.358;2022-11-15T10:15:28;101804.16;;;14.78
49785;BMP280;35679;38.732;-121.358;2022-11-15T10:21:30;101802.84;;;14.74
49785;BMP280;35679;38.732;-121.358;2022-11-15T10:24:26;101807.13;;;14.75
49785;BMP280;35679;38.732;-121.358;2022-11-15T10:27:19;101803.00;;;14.73
49785;BMP280;35679;38.732;-121.358;2022-11-15T10:30:15;101807.50;;;14.72
49785;BMP280;35679;38.732;-121.358;2022-11-15T10:36:26;101805.19;;;14.69
49785;BMP280;35679;38.732;-121.358;2022-11-15T10:39:17;101803.34;;;14.70
49785;BMP280;35679;38.732;-121.358;2022-11-15T10:42:18;101811.31;;;14.70
49785;BMP280;35679;38.732;-121.358;2022-11-15T10:45:29;101811.31;;;14.70
49785;BMP280;35679;38.732;-121.358;2022-11-15T10:48:20;101805.19;;;14.69
49785;BMP280;35679;38.732;-121.358;2022-11-15T10:51:29;101806.81;;;14.70
49785;BMP280;35679;38.732;-121.358;2022-11-15T10:54:30;101808.16;;;14.66
49785;BMP280;35679;38.732;-121.358;2022-11-15T10:57:28;101821.44;;;14.66
49785;BMP280;35679;38.732;-121.358;2022-11-15T11:03:34;101819.13;;;14.63
49785;BMP280;35679;38.732;-121.358;2022-11-15T11:06:24;101827.91;;;14.64
49785;BMP280;35679;38.732;-121.358;2022-11-15T11:12:12;101830.91;;;14.61
49785;BMP280;35679;38.732;-121.358;2022-11-15T11:15:12;101838.88;;;14.61
49785;BMP280;35679;38.732;-121.358;2022-11-15T11:18:08;101839.19;;;14.58
49785;BMP280;35679;38.732;-121.358;2022-11-15T11:21:10;101828.06;;;14.54
49785;BMP280;35679;38.732;-121.358;2022-11-15T11:24:12;101842.03;;;14.56
49785;BMP280;35679;38.732;-121.358;2022-11-15T11:27:42;101834.41;;;14.53
49785;BMP280;35679;38.732;-121.358;2022-11-15T11:36:42;101842.38;;;14.53
49785;BMP280;35679;38.732;-121.358;2022-11-15T11:52:43;101846.31;;;14.49
49785;BMP280;35679;38.732;-121.358;2022-11-15T11:55:39;101841.34;;;14.46
49785;BMP280;35679;38.732;-121.358;2022-11-15T11:58:35;101846.66;;;14.46
49785;BMP280;35679;38.732;-121.358;2022-11-15T12:01:42;101849.31;;;14.46
49785;BMP280;35679;38.732;-121.358;2022-11-15T12:04:46;101847.00;;;14.43
49785;BMP280;35679;38.732;-121.358;2022-11-15T12:07:39;101848.66;;;14.44
49785;BMP280;35679;38.732;-121.358;2022-11-15T12:10:31;101846.00;;;14.44
49785;BMP280;35679;38.732;-121.358;2022-11-15T12:13:26;101842.69;;;14.43
49785;BMP280;35679;38.732;-121.358;2022-11-15T12:16:29;101846.66;;;14.39
49785;BMP280;35679;38.732;-121.358;2022-11-15T12:19:19;101843.84;;;14.40
49785;BMP280;35679;38.732;-121.358;2022-11-15T12:22:34;101851.13;;;14.38
49785;BMP280;35679;38.732;-121.358;2022-11-15T12:28:20;101860.94;;;14.38
49785;BMP280;35679;38.732;-121.358;2022-11-15T12:31:40;101856.63;;;14.37
49785;BMP280;35679;38.732;-121.358;2022-11-15T12:34:38;101856.63;;;14.37
49785;BMP280;35679;38.732;-121.358;2022-11-15T12:40:33;101865.91;;;14.33
49785;BMP280;35679;38.732;-121.358;2022-11-15T12:43:39;101873.19;;;14.31
49785;BMP280;35679;38.732;-121.358;2022-11-15T12:52:17;101883.00;;;14.30
49785;BMP280;35679;38.732;-121.358;2022-11-15T12:55:30;101883.31;;;14.27
49785;BMP280;35679;38.732;-121.358;2022-11-15T12:58:27;101881.31;;;14.29
49785;BMP280;35679;38.732;-121.358;2022-11-15T13:04:27;101872.03;;;14.25
49785;BMP280;35679;38.732;-121.358;2022-11-15T13:10:32;101877.47;;;14.24
49785;BMP280;35679;38.732;-121.358;2022-11-15T13:13:48;101878.34;;;14.24
49785;BMP280;35679;38.732;-121.358;2022-11-15T13:16:37;101879.50;;;14.22
49785;BMP280;35679;38.732;-121.358;2022-11-15T13:19:28;101881.00;;;14.24
49785;BMP280;35679;38.732;-121.358;2022-11-15T13:22:18;101881.47;;;14.20
49785;BMP280;35679;38.732;-121.358;2022-11-15T13:25:58;101877.13;;;14.19
49785;BMP280;35679;38.732;-121.358;2022-11-15T13:28:51;101885.97;;;14.19
49785;BMP280;35679;38.732;-121.358;2022-11-15T13:31:45;101882.63;;;14.17
49785;BMP280;35679;38.732;-121.358;2022-11-15T13:34:37;101883.47;;;14.18
49785;BMP280;35679;38.732;-121.358;2022-11-15T13:37:42;101881.81;;;14.17
49785;BMP280;35679;38.732;-121.358;2022-11-15T13:40:36;101878.47;;;14.15
49785;BMP280;35679;38.732;-121.358;2022-11-15T13:43:31;101883.94;;;14.13
49785;BMP280;35679;38.732;-121.358;2022-11-15T13:46:31;101889.25;;;14.13
49785;BMP280;35679;38.732;-121.358;2022-11-15T13:49:29;101886.78;;;14.12
49785;BMP280;35679;38.732;-121.358;2022-11-15T13:52:30;101887.91;;;14.09
49785;BMP280;35679;38.732;-121.358;2022-11-15T13:55:22;101891.38;;;14.10
49785;BMP280;35679;38.732;-121.358;2022-11-15T13:58:13;101892.06;;;14.12
49785;BMP280;35679;38.732;-121.358;2022-11-15T14:01:15;101898.63;;;14.08
49785;BMP280;35679;38.732;-121.358;2022-11-15T14:04:05;101900.34;;;14.09
49785;BMP280;35679;38.732;-121.358;2022-11-15T14:06:59;101901.63;;;14.05
49785;BMP280;35679;38.732;-121.358;2022-11-15T14:09:49;101898.16;;;14.04
49785;BMP280;35679;38.732;-121.358;2022-11-15T14:12:39;101896.50;;;14.03
49785;BMP280;35679;38.732;-121.358;2022-11-15T14:15:41;101895.63;;;14.03
49785;BMP280;35679;38.732;-121.358;2022-11-15T14:18:46;101887.38;;;14.06
49785;BMP280;35679;38.732;-121.358;2022-11-15T14:21:36;101891.84;;;14.05
49785;BMP280;35679;38.732;-121.358;2022-11-15T14:24:30;101881.56;;;14.02
49785;BMP280;35679;38.732;-121.358;2022-11-15T14:27:25;101895.00;;;14.01
49785;BMP280;35679;38.732;-121.358;2022-11-15T14:30:16;101891.66;;;13.99
49785;BMP280;35679;38.732;-121.358;2022-11-15T14:33:38;101899.63;;;13.99
49785;BMP280;35679;38.732;-121.358;2022-11-15T14:36:28;101889.97;;;13.98
49785;BMP280;35679;38.732;-121.358;2022-11-15T14:39:17;101903.25;;;13.98
49785;BMP280;35679;38.732;-121.358;2022-11-15T14:42:09;101897.94;;;13.98
49785;BMP280;35679;38.732;-121.358;2022-11-15T14:44:59;101894.63;;;13.96
49785;BMP280;35679;38.732;-121.358;2022-11-15T14:47:48;101893.97;;;13.94
49785;BMP280;35679;38.732;-121.358;2022-11-15T14:50:38;101907.22;;;13.94
49785;BMP280;35679;38.732;-121.358;2022-11-15T14:53:27;101906.41;;;13.93
49785;BMP280;35679;38.732;-121.358;2022-11-15T14:56:17;101912.69;;;13.92
49785;BMP280;35679;38.732;-121.358;2022-11-15T14:59:06;101912.88;;;13.91
49785;BMP280;35679;38.732;-121.358;2022-11-15T15:01:56;101918.47;;;13.88
49785;BMP280;35679;38.732;-121.358;2022-11-15T15:04:46;101925.44;;;13.89
49785;BMP280;35679;38.732;-121.358;2022-11-15T15:07:36;101928.25;;;13.87
49785;BMP280;35679;38.732;-121.358;2022-11-15T15:10:27;101930.91;;;13.87
49785;BMP280;35679;38.732;-121.358;2022-11-15T15:13:27;101938.88;;;13.87
49785;BMP280;35679;38.732;-121.358;2022-11-15T15:16:19;101935.53;;;13.85
49785;BMP280;35679;38.732;-121.358;2022-11-15T15:19:08;101937.38;;;13.85
49785;BMP280;35679;38.732;-121.358;2022-11-15T15:21:58;101952.31;;;13.86
49785;BMP280;35679;38.732;-121.358;2022-11-15T15:24:48;101946.47;;;13.82
49785;BMP280;35679;38.732;-121.358;2022-11-15T15:27:37;101957.91;;;13.83
49785;BMP280;35679;38.732;-121.358;2022-11-15T15:30:29;101950.94;;;13.82
49785;BMP280;35679;38.732;-121.358;2022-11-15T15:33:18;101950.94;;;13.82
49785;BMP280;35679;38.732;-121.358;2022-11-15T15:36:12;101955.44;;;13.81
49785;BMP280;35679;38.732;-121.358;2022-11-15T15:39:02;101957.38;;;13.79
49785;BMP280;35679;38.732;-121.358;2022-11-15T15:41:52;101966.03;;;13.81
49785;BMP280;35679;38.732;-121.358;2022-11-15T15:44:44;101964.53;;;13.79
49785;BMP280;35679;38.732;-121.358;2022-11-15T15:47:33;101960.72;;;13.81
49785;BMP280;35679;38.732;-121.358;2022-11-15T15:50:26;101973.19;;;13.81
49785;BMP280;35679;38.732;-121.358;2022-11-15T15:53:16;101968.00;;;13.79
49785;BMP280;35679;38.732;-121.358;2022-11-15T15:56:06;101976.81;;;13.80
49785;BMP280;35679;38.732;-121.358;2022-11-15T15:58:56;101966.19;;;13.80
49785;BMP280;35679;38.732;-121.358;2022-11-15T16:01:46;101966.38;;;13.78
49785;BMP280;35679;38.732;-121.358;2022-11-15T16:04:35;101969.16;;;13.77
49785;BMP280;35679;38.732;-121.358;2022-11-15T16:07:25;101975.97;;;13.79
49785;BMP280;35679;38.732;-121.358;2022-11-15T16:10:23;101985.75;;;13.79
49785;BMP280;35679;38.732;-121.358;2022-11-15T16:13:13;101976.97;;;13.78
49785;BMP280;35679;38.732;-121.358;2022-11-15T16:16:04;101979.75;;;13.77
49785;BMP280;35679;38.732;-121.358;2022-11-15T16:18:56;101984.78;;;13.80
49785;BMP280;35679;38.732;-121.358;2022-11-15T16:21:46;101985.06;;;13.77
49785;BMP280;35679;38.732;-121.358;2022-11-15T16:24:35;101994.53;;;13.79
49785;BMP280;35679;38.732;-121.358;2022-11-15T16:27:25;101983.09;;;13.79
49785;BMP280;35679;38.732;-121.358;2022-11-15T16:30:17;101984.09;;;13.78
49785;BMP280;35679;38.732;-121.358;2022-11-15T16:33:07;101985.75;;;13.79
49785;BMP280;35679;38.732;-121.358;2022-11-15T16:35:57;101993.72;;;13.79
49785;BMP280;35679;38.732;-121.358;2022-11-15T16:38:46;102003.50;;;13.78
49785;BMP280;35679;38.732;-121.358;2022-11-15T16:41:36;102001.84;;;13.77
49785;BMP280;35679;38.732;-121.358;2022-11-15T16:44:26;101998.19;;;13.78
49785;BMP280;35679;38.732;-121.358;2022-11-15T16:47:20;101996.38;;;13.79
49785;BMP280;35679;38.732;-121.358;2022-11-15T16:50:25;102003.34;;;13.80
49785;BMP280;35679;38.732;-121.358;2022-11-15T16:53:15;102014.59;;;13.82
49785;BMP280;35679;38.732;-121.358;2022-11-15T16:59:16;102004.00;;;13.82
49785;BMP280;35679;38.732;-121.358;2022-11-15T17:02:11;101998.41;;;13.85
49785;BMP280;35679;38.732;-121.358;2022-11-15T17:05:01;101996.72;;;13.84
49785;BMP280;35679;38.732;-121.358;2022-11-15T17:07:57;102011.50;;;13.86
49785;BMP280;35679;38.732;-121.358;2022-11-15T17:10:47;102016.50;;;13.89
49785;BMP280;35679;38.732;-121.358;2022-11-15T17:13:37;102017.66;;;13.87
49785;BMP280;35679;38.732;-121.358;2022-11-15T17:16:26;102012.34;;;13.87
49785;BMP280;35679;38.732;-121.358;2022-11-15T17:19:18;102007.88;;;13.87
49785;BMP280;35679;38.732;-121.358;2022-11-15T17:22:08;102002.22;;;13.90
49785;BMP280;35679;38.732;-121.358;2022-11-15T17:24:58;102006.38;;;13.93
49785;BMP280;35679;38.732;-121.358;2022-11-15T17:27:47;102010.19;;;13.90
49785;BMP280;35679;38.732;-121.358;2022-11-15T17:30:40;102028.47;;;13.93
49785;BMP280;35679;38.732;-121.358;2022-11-15T17:33:31;102018.69;;;13.94
49785;BMP280;35679;38.732;-121.358;2022-11-15T17:36:20;102021.16;;;13.95
49785;BMP280;35679;38.732;-121.358;2022-11-15T17:39:10;102031.47;;;13.98
49785;BMP280;35679;38.732;-121.358;2022-11-15T17:42:00;102027.97;;;13.98
49785;BMP280;35679;38.732;-121.358;2022-11-15T17:44:49;102030.63;;;13.98
49785;BMP280;35679;38.732;-121.358;2022-11-15T17:47:39;102033.97;;;14.00
49785;BMP280;35679;38.732;-121.358;2022-11-15T17:50:28;102031.84;;;14.03
49785;BMP280;35679;38.732;-121.358;2022-11-15T17:53:18;102029.72;;;14.07
49785;BMP280;35679;38.732;-121.358;2022-11-15T17:58:59;102022.13;;;14.12
49785;BMP280;35679;38.732;-121.358;2022-11-15T18:01:49;102022.13;;;14.12
49785;BMP280;35679;38.732;-121.358;2022-11-15T18:04:38;102021.28;;;14.11
49785;BMP280;35679;38.732;-121.358;2022-11-15T18:07:28;102028.09;;;14.14
49785;BMP280;35679;38.732;-121.358;2022-11-15T18:10:18;102013.19;;;14.13
49785;BMP280;35679;38.732;-121.358;2022-11-15T18:13:07;102022.78;;;14.14
49785;BMP280;35679;38.732;-121.358;2022-11-15T18:15:57;102022.50;;;14.17